To NAV CANADA Home Page Login to a new session Search on AWWS site Feedback and Comments Disclaimer Vers la page française équivalente Tips FAQ What's new on the site To the Forecasts and Observations / NOTAM section To "File a Flight Plan" website Publications and other links Update of the User's profile FIC Telephone Numbers My Weather Data Folder Route Weather Data Regional Weather Data Local Weather Data To the Forecasts and Observations / NOTAM section
Request Generated 02/08/2016 at 12:01:44 UTC . Weather information available at that time is displayed.

METAR/TAF

GOOSE BAY/NL    

METAR CYYR 081100Z 27011KT 15SM FEW270 M25/M32 A3035 RMK CI0 SLP283=
METAR CYYR 081000Z 27013KT 15SM SKC M24/M31 A3034 RMK SLP280=
METAR CYYR 080900Z 27008KT 15SM SKC M24/M31 A3031 RMK SLP270=

TAF CYYR 081130Z 0812/0912 28010KT P6SM SCT030
BECMG 0815/0817 VRB03KT
FM090400 VRB03KT 6SM IC SCT200
RMK NXT FCST BY 081500Z=
Your time UTC time
Weather data provided by Environment Canada and NAV CANADA